sensor_id;sensor_type;location;lat;lon;timestamp;temperature;humidity
8422;DHT22;4248;48.196;10.924;2023-11-21T00:01:52;8.00;52.20
8422;DHT22;4248;48.196;10.924;2023-11-21T00:04:17;8.00;51.20
8422;DHT22;4248;48.196;10.924;2023-11-21T00:06:43;8.00;50.70
8422;DHT22;4248;48.196;10.924;2023-11-21T00:09:12;8.00;51.00
8422;DHT22;4248;48.196;10.924;2023-11-21T00:11:38;8.00;53.20
8422;DHT22;4248;48.196;10.924;2023-11-21T00:14:04;8.10;51.90
8422;DHT22;4248;48.196;10.924;2023-11-21T00:16:29;8.10;50.70
8422;DHT22;4248;48.196;10.924;2023-11-21T00:18:55;8.10;50.60
8422;DHT22;4248;48.196;10.924;2023-11-21T00:21:20;8.20;51.80
8422;DHT22;4248;48.196;10.924;2023-11-21T00:23:46;8.20;51.50
8422;DHT22;4248;48.196;10.924;2023-11-21T00:26:11;8.20;50.10
8422;DHT22;4248;48.196;10.924;2023-11-21T00:28:37;8.20;50.00
8422;DHT22;4248;48.196;10.924;2023-11-21T00:31:03;8.20;51.10
8422;DHT22;4248;48.196;10.924;2023-11-21T00:33:29;8.30;51.10
8422;DHT22;4248;48.196;10.924;2023-11-21T00:35:55;8.30;51.10
8422;DHT22;4248;48.196;10.924;2023-11-21T00:38:20;8.30;51.10
8422;DHT22;4248;48.196;10.924;2023-11-21T00:40:46;8.40;50.20
8422;DHT22;4248;48.196;10.924;2023-11-21T00:43:12;8.40;51.30
8422;DHT22;4248;48.196;10.924;2023-11-21T00:45:37;8.40;51.20
8422;DHT22;4248;48.196;10.924;2023-11-21T00:50:30;8.40;50.20
8422;DHT22;4248;48.196;10.924;2023-11-21T00:52:56;8.40;52.50
8422;DHT22;4248;48.196;10.924;2023-11-21T00:55:22;8.40;51.20
8422;DHT22;4248;48.196;10.924;2023-11-21T00:57:47;8.30;51.20
8422;DHT22;4248;48.196;10.924;2023-11-21T01:00:13;8.40;50.20
8422;DHT22;4248;48.196;10.924;2023-11-21T01:02:43;8.40;51.30
8422;DHT22;4248;48.196;10.924;2023-11-21T01:05:09;8.40;51.30
8422;DHT22;4248;48.196;10.924;2023-11-21T01:07:36;8.40;51.30
8422;DHT22;4248;48.196;10.924;2023-11-21T01:10:02;8.40;50.20
8422;DHT22;4248;48.196;10.924;2023-11-21T01:12:31;8.40;51.30
8422;DHT22;4248;48.196;10.924;2023-11-21T01:14:56;8.40;51.20
8422;DHT22;4248;48.196;10.924;2023-11-21T01:17:25;8.40;51.20
8422;DHT22;4248;48.196;10.924;2023-11-21T01:19:51;8.40;50.20
8422;DHT22;4248;48.196;10.924;2023-11-21T01:22:16;8.40;51.30
8422;DHT22;4248;48.196;10.924;2023-11-21T01:24:43;8.40;51.20
8422;DHT22;4248;48.196;10.924;2023-11-21T01:27:08;8.30;51.10
8422;DHT22;4248;48.196;10.924;2023-11-21T01:29:34;8.30;50.60
8422;DHT22;4248;48.196;10.924;2023-11-21T01:32:02;8.20;52.30
8422;DHT22;4248;48.196;10.924;2023-11-21T01:34:27;8.10;52.90
8422;DHT22;4248;48.196;10.924;2023-11-21T01:36:53;8.10;53.10
8422;DHT22;4248;48.196;10.924;2023-11-21T01:39:19;8.20;51.80
8422;DHT22;4248;48.196;10.924;2023-11-21T01:41:49;8.20;52.90
8422;DHT22;4248;48.196;10.924;2023-11-21T01:44:15;8.20;52.70
8422;DHT22;4248;48.196;10.924;2023-11-21T01:46:42;8.20;52.50
8422;DHT22;4248;48.196;10.924;2023-11-21T01:49:09;8.20;51.30
8422;DHT22;4248;48.196;10.924;2023-11-21T01:51:36;8.20;52.30
8422;DHT22;4248;48.196;10.924;2023-11-21T01:54:02;8.20;52.40
8422;DHT22;4248;48.196;10.924;2023-11-21T01:56:30;8.20;52.40
8422;DHT22;4248;48.196;10.924;2023-11-21T01:58:57;8.20;51.90
8422;DHT22;4248;48.196;10.924;2023-11-21T02:01:23;8.20;53.00
8422;DHT22;4248;48.196;10.924;2023-11-21T02:03:49;8.20;53.10
8422;DHT22;4248;48.196;10.924;2023-11-21T02:06:14;8.20;53.00
8422;DHT22;4248;48.196;10.924;2023-11-21T02:08:40;8.20;51.90
8422;DHT22;4248;48.196;10.924;2023-11-21T02:11:07;8.30;52.70
8422;DHT22;4248;48.196;10.924;2023-11-21T02:13:34;8.30;52.50
8422;DHT22;4248;48.196;10.924;2023-11-21T02:16:02;8.30;52.60
8422;DHT22;4248;48.196;10.924;2023-11-21T02:18:28;8.20;52.00
8422;DHT22;4248;48.196;10.924;2023-11-21T02:20:55;8.20;52.90
8422;DHT22;4248;48.196;10.924;2023-11-21T02:23:21;8.20;53.10
8422;DHT22;4248;48.196;10.924;2023-11-21T02:25:48;8.20;53.20
8422;DHT22;4248;48.196;10.924;2023-11-21T02:28:14;8.10;53.30
8422;DHT22;4248;48.196;10.924;2023-11-21T02:30:42;8.10;52.70
8422;DHT22;4248;48.196;10.924;2023-11-21T02:33:08;8.10;54.30
8422;DHT22;4248;48.196;10.924;2023-11-21T02:35:33;8.00;55.50
8422;DHT22;4248;48.196;10.924;2023-11-21T02:38:00;8.00;54.40
8422;DHT22;4248;48.196;10.924;2023-11-21T02:40:25;8.00;53.90
8422;DHT22;4248;48.196;10.924;2023-11-21T02:42:51;8.00;54.20
8422;DHT22;4248;48.196;10.924;2023-11-21T02:45:19;8.00;55.00
8422;DHT22;4248;48.196;10.924;2023-11-21T02:47:46;8.00;55.00
8422;DHT22;4248;48.196;10.924;2023-11-21T02:50:12;8.00;53.90
8422;DHT22;4248;48.196;10.924;2023-11-21T02:52:38;8.10;55.00
8422;DHT22;4248;48.196;10.924;2023-11-21T02:55:05;8.00;54.90
8422;DHT22;4248;48.196;10.924;2023-11-21T02:57:32;8.10;53.90
8422;DHT22;4248;48.196;10.924;2023-11-21T02:59:59;8.10;53.90
8422;DHT22;4248;48.196;10.924;2023-11-21T03:02:25;8.00;54.90
8422;DHT22;4248;48.196;10.924;2023-11-21T03:04:50;8.00;55.00
8422;DHT22;4248;48.196;10.924;2023-11-21T03:07:16;8.00;55.30
8422;DHT22;4248;48.196;10.924;2023-11-21T03:09:44;7.90;55.10
8422;DHT22;4248;48.196;10.924;2023-11-21T03:12:10;7.80;56.50
8422;DHT22;4248;48.196;10.924;2023-11-21T03:14:38;7.80;56.90
8422;DHT22;4248;48.196;10.924;2023-11-21T03:17:03;7.80;56.80
8422;DHT22;4248;48.196;10.924;2023-11-21T03:19:30;7.90;56.70
8422;DHT22;4248;48.196;10.924;2023-11-21T03:21:56;7.90;56.70
8422;DHT22;4248;48.196;10.924;2023-11-21T03:24:21;7.90;56.60
8422;DHT22;4248;48.196;10.924;2023-11-21T03:26:48;7.90;56.60
8422;DHT22;4248;48.196;10.924;2023-11-21T03:29:14;7.90;56.70
8422;DHT22;4248;48.196;10.924;2023-11-21T03:31:40;7.90;56.80
8422;DHT22;4248;48.196;10.924;2023-11-21T03:34:06;7.90;56.90
8422;DHT22;4248;48.196;10.924;2023-11-21T03:36:33;7.90;57.00
8422;DHT22;4248;48.196;10.924;2023-11-21T03:38:59;7.90;55.90
8422;DHT22;4248;48.196;10.924;2023-11-21T03:41:24;7.90;57.00
8422;DHT22;4248;48.196;10.924;2023-11-21T03:43:50;8.00;57.10
8422;DHT22;4248;48.196;10.924;2023-11-21T03:46:16;8.00;56.90
8422;DHT22;4248;48.196;10.924;2023-11-21T03:48:41;8.00;56.10
8422;DHT22;4248;48.196;10.924;2023-11-21T03:51:07;8.00;57.00
8422;DHT22;4248;48.196;10.924;2023-11-21T03:53:33;8.00;56.70
8422;DHT22;4248;48.196;10.924;2023-11-21T03:55:58;8.00;56.80
8422;DHT22;4248;48.196;10.924;2023-11-21T03:58:24;8.00;56.90
8422;DHT22;4248;48.196;10.924;2023-11-21T04:00:49;8.00;55.80
8422;DHT22;4248;48.196;10.924;2023-11-21T04:03:15;8.10;56.70
8422;DHT22;4248;48.196;10.924;2023-11-21T04:05:41;8.10;56.60
8422;DHT22;4248;48.196;10.924;2023-11-21T04:08:06;8.10;56.60
8422;DHT22;4248;48.196;10.924;2023-11-21T04:10:32;8.10;55.60
8422;DHT22;4248;48.196;10.924;2023-11-21T04:12:58;8.10;55.60
8422;DHT22;4248;48.196;10.924;2023-11-21T04:15:23;8.10;55.60
8422;DHT22;4248;48.196;10.924;2023-11-21T04:17:49;8.10;55.70
8422;DHT22;4248;48.196;10.924;2023-11-21T04:20:15;8.00;56.20
8422;DHT22;4248;48.196;10.924;2023-11-21T04:22:41;8.00;57.00
8422;DHT22;4248;48.196;10.924;2023-11-21T04:25:15;8.20;57.20
8422;DHT22;4248;48.196;10.924;2023-11-21T04:27:42;8.10;57.30
8422;DHT22;4248;48.196;10.924;2023-11-21T04:30:11;7.90;56.50
8422;DHT22;4248;48.196;10.924;2023-11-21T04:32:37;7.80;57.70
8422;DHT22;4248;48.196;10.924;2023-11-21T04:35:04;7.70;57.60
8422;DHT22;4248;48.196;10.924;2023-11-21T04:37:32;7.70;58.30
8422;DHT22;4248;48.196;10.924;2023-11-21T04:39:57;7.80;58.20
8422;DHT22;4248;48.196;10.924;2023-11-21T04:42:23;9.10;60.50
8422;DHT22;4248;48.196;10.924;2023-11-21T04:44:49;7.60;58.30
8422;DHT22;4248;48.196;10.924;2023-11-21T04:47:15;7.70;59.50
8422;DHT22;4248;48.196;10.924;2023-11-21T04:49:43;7.50;58.90
8422;DHT22;4248;48.196;10.924;2023-11-21T04:52:09;7.40;60.00
8422;DHT22;4248;48.196;10.924;2023-11-21T04:54:35;7.30;60.40
8422;DHT22;4248;48.196;10.924;2023-11-21T04:57:01;7.20;60.10
8422;DHT22;4248;48.196;10.924;2023-11-21T04:59:27;7.10;60.50
8422;DHT22;4248;48.196;10.924;2023-11-21T05:01:53;7.10;61.70
8422;DHT22;4248;48.196;10.924;2023-11-21T05:04:19;7.10;61.80
8422;DHT22;4248;48.196;10.924;2023-11-21T05:06:45;7.10;62.00
8422;DHT22;4248;48.196;10.924;2023-11-21T05:09:11;7.00;60.90
8422;DHT22;4248;48.196;10.924;2023-11-21T05:11:38;7.00;61.90
8422;DHT22;4248;48.196;10.924;2023-11-21T05:14:04;7.00;61.80
8422;DHT22;4248;48.196;10.924;2023-11-21T05:16:30;7.00;61.80
8422;DHT22;4248;48.196;10.924;2023-11-21T05:18:56;7.00;60.90
8422;DHT22;4248;48.196;10.924;2023-11-21T05:21:29;7.00;61.90
8422;DHT22;4248;48.196;10.924;2023-11-21T05:23:56;6.90;61.90
8422;DHT22;4248;48.196;10.924;2023-11-21T05:26:22;6.90;62.00
8422;DHT22;4248;48.196;10.924;2023-11-21T05:28:47;6.90;61.10
8422;DHT22;4248;48.196;10.924;2023-11-21T05:31:13;7.00;61.00
8422;DHT22;4248;48.196;10.924;2023-11-21T05:33:38;6.90;61.70
8422;DHT22;4248;48.196;10.924;2023-11-21T05:36:04;7.00;61.50
8422;DHT22;4248;48.196;10.924;2023-11-21T05:38:30;7.00;60.50
8422;DHT22;4248;48.196;10.924;2023-11-21T05:40:55;7.00;61.40
8422;DHT22;4248;48.196;10.924;2023-11-21T05:43:21;7.00;60.40
8422;DHT22;4248;48.196;10.924;2023-11-21T05:45:47;7.00;61.30
8422;DHT22;4248;48.196;10.924;2023-11-21T05:48:12;7.00;61.40
8422;DHT22;4248;48.196;10.924;2023-11-21T05:50:38;7.00;60.40
8422;DHT22;4248;48.196;10.924;2023-11-21T05:53:04;6.90;61.50
8422;DHT22;4248;48.196;10.924;2023-11-21T05:55:29;6.90;61.40
8422;DHT22;4248;48.196;10.924;2023-11-21T05:57:55;7.00;60.60
8422;DHT22;4248;48.196;10.924;2023-11-21T06:00:21;6.90;60.40
8422;DHT22;4248;48.196;10.924;2023-11-21T06:02:53;6.90;61.50
8422;DHT22;4248;48.196;10.924;2023-11-21T06:05:21;6.90;61.50
8422;DHT22;4248;48.196;10.924;2023-11-21T06:07:48;6.80;61.70
8422;DHT22;4248;48.196;10.924;2023-11-21T06:10:14;6.80;60.90
8422;DHT22;4248;48.196;10.924;2023-11-21T06:12:40;6.80;62.10
8422;DHT22;4248;48.196;10.924;2023-11-21T06:15:08;6.70;62.10
8422;DHT22;4248;48.196;10.924;2023-11-21T06:17:38;6.70;62.20
8422;DHT22;4248;48.196;10.924;2023-11-21T06:20:05;6.70;60.90
8422;DHT22;4248;48.196;10.924;2023-11-21T06:22:38;6.80;61.70
8422;DHT22;4248;48.196;10.924;2023-11-21T06:25:04;6.90;61.20
8422;DHT22;4248;48.196;10.924;2023-11-21T06:27:49;7.00;60.80
8422;DHT22;4248;48.196;10.924;2023-11-21T06:30:17;7.00;59.40
8422;DHT22;4248;48.196;10.924;2023-11-21T06:32:44;7.00;60.30
8422;DHT22;4248;48.196;10.924;2023-11-21T06:35:12;7.00;60.30
8422;DHT22;4248;48.196;10.924;2023-11-21T06:37:38;7.00;60.10
8422;DHT22;4248;48.196;10.924;2023-11-21T06:40:05;7.00;59.30
8422;DHT22;4248;48.196;10.924;2023-11-21T06:42:32;7.00;60.40
8422;DHT22;4248;48.196;10.924;2023-11-21T06:44:58;7.00;60.60
8422;DHT22;4248;48.196;10.924;2023-11-21T06:47:25;7.00;60.60
8422;DHT22;4248;48.196;10.924;2023-11-21T06:49:51;7.00;59.60
8422;DHT22;4248;48.196;10.924;2023-11-21T06:52:17;7.00;60.00
8422;DHT22;4248;48.196;10.924;2023-11-21T06:54:43;7.00;60.50
8422;DHT22;4248;48.196;10.924;2023-11-21T06:57:09;7.00;60.50
8422;DHT22;4248;48.196;10.924;2023-11-21T06:59:35;6.90;59.40
8422;DHT22;4248;48.196;10.924;2023-11-21T07:02:00;7.00;60.30
8422;DHT22;4248;48.196;10.924;2023-11-21T07:04:26;7.00;60.30
8422;DHT22;4248;48.196;10.924;2023-11-21T07:06:53;7.00;60.20
8422;DHT22;4248;48.196;10.924;2023-11-21T07:09:19;7.10;59.30
8422;DHT22;4248;48.196;10.924;2023-11-21T07:11:48;7.10;60.20
8422;DHT22;4248;48.196;10.924;2023-11-21T07:14:14;7.10;59.10
8422;DHT22;4248;48.196;10.924;2023-11-21T07:16:39;7.20;60.00
8422;DHT22;4248;48.196;10.924;2023-11-21T07:19:05;7.20;58.70
8422;DHT22;4248;48.196;10.924;2023-11-21T07:21:35;7.20;59.80
8422;DHT22;4248;48.196;10.924;2023-11-21T07:24:01;7.30;59.60
8422;DHT22;4248;48.196;10.924;2023-11-21T07:26:27;7.40;59.50
8422;DHT22;4248;48.196;10.924;2023-11-21T07:28:54;7.50;57.80
8422;DHT22;4248;48.196;10.924;2023-11-21T07:31:19;7.50;58.80
8422;DHT22;4248;48.196;10.924;2023-11-21T07:33:48;7.60;58.60
8422;DHT22;4248;48.196;10.924;2023-11-21T07:36:14;7.80;58.30
8422;DHT22;4248;48.196;10.924;2023-11-21T07:38:43;8.00;56.70
8422;DHT22;4248;48.196;10.924;2023-11-21T07:41:09;8.00;57.10
8422;DHT22;4248;48.196;10.924;2023-11-21T07:43:35;8.20;58.20
8422;DHT22;4248;48.196;10.924;2023-11-21T07:46:04;8.20;56.40
8422;DHT22;4248;48.196;10.924;2023-11-21T07:48:30;8.40;55.40
8422;DHT22;4248;48.196;10.924;2023-11-21T07:50:57;8.40;56.10
8422;DHT22;4248;48.196;10.924;2023-11-21T07:53:24;8.50;55.80
8422;DHT22;4248;48.196;10.924;2023-11-21T07:55:51;8.50;55.70
8422;DHT22;4248;48.196;10.924;2023-11-21T07:58:16;8.50;55.60
8422;DHT22;4248;48.196;10.924;2023-11-21T08:00:42;8.60;54.40
8422;DHT22;4248;48.196;10.924;2023-11-21T08:03:07;8.70;55.50
8422;DHT22;4248;48.196;10.924;2023-11-21T08:05:33;8.70;55.40
8422;DHT22;4248;48.196;10.924;2023-11-21T08:07:58;8.70;55.30
8422;DHT22;4248;48.196;10.924;2023-11-21T08:10:24;8.80;54.40
8422;DHT22;4248;48.196;10.924;2023-11-21T08:12:50;8.80;55.50
8422;DHT22;4248;48.196;10.924;2023-11-21T08:15:16;8.80;55.70
8422;DHT22;4248;48.196;10.924;2023-11-21T08:17:41;8.80;55.70
8422;DHT22;4248;48.196;10.924;2023-11-21T08:20:07;8.80;54.70
8422;DHT22;4248;48.196;10.924;2023-11-21T08:22:35;8.80;55.90
8422;DHT22;4248;48.196;10.924;2023-11-21T08:25:01;9.20;56.00
8422;DHT22;4248;48.196;10.924;2023-11-21T08:27:29;9.00;54.10
8422;DHT22;4248;48.196;10.924;2023-11-21T08:29:54;9.10;53.80
8422;DHT22;4248;48.196;10.924;2023-11-21T08:32:21;9.20;54.80
8422;DHT22;4248;48.196;10.924;2023-11-21T08:34:47;9.30;54.40
8422;DHT22;4248;48.196;10.924;2023-11-21T08:37:16;9.30;54.30
8422;DHT22;4248;48.196;10.924;2023-11-21T08:39:41;9.30;53.20
8422;DHT22;4248;48.196;10.924;2023-11-21T08:42:07;9.30;54.50
8422;DHT22;4248;48.196;10.924;2023-11-21T08:44:33;9.40;54.50
8422;DHT22;4248;48.196;10.924;2023-11-21T08:46:59;11.60;55.50
8422;DHT22;4248;48.196;10.924;2023-11-21T08:49:24;9.40;53.30
8422;DHT22;4248;48.196;10.924;2023-11-21T08:51:53;9.50;54.40
8422;DHT22;4248;48.196;10.924;2023-11-21T08:54:20;9.70;53.30
8422;DHT22;4248;48.196;10.924;2023-11-21T08:56:46;9.70;53.60
8422;DHT22;4248;48.196;10.924;2023-11-21T08:59:12;9.80;51.60
8422;DHT22;4248;48.196;10.924;2023-11-21T09:01:40;9.90;52.70
8422;DHT22;4248;48.196;10.924;2023-11-21T09:04:06;9.90;52.50
8422;DHT22;4248;48.196;10.924;2023-11-21T09:06:31;9.80;52.40
8422;DHT22;4248;48.196;10.924;2023-11-21T09:08:57;9.60;53.00
8422;DHT22;4248;48.196;10.924;2023-11-21T09:11:24;9.50;53.60
8422;DHT22;4248;48.196;10.924;2023-11-21T09:13:50;9.40;54.30
8422;DHT22;4248;48.196;10.924;2023-11-21T09:16:17;9.60;54.30
8422;DHT22;4248;48.196;10.924;2023-11-21T09:18:42;9.90;52.50
8422;DHT22;4248;48.196;10.924;2023-11-21T09:21:08;9.90;53.10
8422;DHT22;4248;48.196;10.924;2023-11-21T09:23:35;10.10;51.80
8422;DHT22;4248;48.196;10.924;2023-11-21T09:26:01;10.10;51.70
8422;DHT22;4248;48.196;10.924;2023-11-21T09:28:27;10.10;51.70
8422;DHT22;4248;48.196;10.924;2023-11-21T09:30:56;10.20;50.90
8422;DHT22;4248;48.196;10.924;2023-11-21T09:33:21;10.20;51.80
8422;DHT22;4248;48.196;10.924;2023-11-21T09:35:50;10.00;51.60
8422;DHT22;4248;48.196;10.924;2023-11-21T09:38:16;9.90;52.60
8422;DHT22;4248;48.196;10.924;2023-11-21T09:40:42;9.80;51.50
8422;DHT22;4248;48.196;10.924;2023-11-21T09:43:16;9.80;53.20
8422;DHT22;4248;48.196;10.924;2023-11-21T09:45:50;9.80;52.50
8422;DHT22;4248;48.196;10.924;2023-11-21T09:48:20;9.60;53.40
8422;DHT22;4248;48.196;10.924;2023-11-21T09:50:47;9.70;52.30
8422;DHT22;4248;48.196;10.924;2023-11-21T09:53:22;9.70;53.30
8422;DHT22;4248;48.196;10.924;2023-11-21T09:55:53;9.70;53.10
8422;DHT22;4248;48.196;10.924;2023-11-21T09:58:20;9.70;53.20
8422;DHT22;4248;48.196;10.924;2023-11-21T10:00:48;9.60;52.30
8422;DHT22;4248;48.196;10.924;2023-11-21T10:03:14;9.90;53.50
8422;DHT22;4248;48.196;10.924;2023-11-21T10:05:42;9.70;53.30
8422;DHT22;4248;48.196;10.924;2023-11-21T10:08:09;9.80;53.10
8422;DHT22;4248;48.196;10.924;2023-11-21T10:10:45;9.90;51.50
8422;DHT22;4248;48.196;10.924;2023-11-21T10:13:12;9.90;51.50
8422;DHT22;4248;48.196;10.924;2023-11-21T10:15:42;10.00;51.60
8422;DHT22;4248;48.196;10.924;2023-11-21T10:18:14;10.00;51.70
8422;DHT22;4248;48.196;10.924;2023-11-21T10:20:40;10.10;50.70
8422;DHT22;4248;48.196;10.924;2023-11-21T10:23:07;10.00;50.60
8422;DHT22;4248;48.196;10.924;2023-11-21T10:25:36;10.10;51.80
8422;DHT22;4248;48.196;10.924;2023-11-21T10:28:03;10.30;51.90
8422;DHT22;4248;48.196;10.924;2023-11-21T10:30:34;10.40;49.40
8422;DHT22;4248;48.196;10.924;2023-11-21T10:33:02;10.40;50.90
8422;DHT22;4248;48.196;10.924;2023-11-21T10:35:44;10.40;50.90
8422;DHT22;4248;48.196;10.924;2023-11-21T10:38:19;10.10;50.80
8422;DHT22;4248;48.196;10.924;2023-11-21T10:40:46;10.10;50.50
8422;DHT22;4248;48.196;10.924;2023-11-21T10:43:13;10.10;50.70
8422;DHT22;4248;48.196;10.924;2023-11-21T10:45:40;10.40;49.40
8422;DHT22;4248;48.196;10.924;2023-11-21T10:48:10;10.40;49.40
8422;DHT22;4248;48.196;10.924;2023-11-21T10:50:37;10.50;48.90
8422;DHT22;4248;48.196;10.924;2023-11-21T10:53:03;10.50;49.90
8422;DHT22;4248;48.196;10.924;2023-11-21T10:55:30;10.60;49.50
8422;DHT22;4248;48.196;10.924;2023-11-21T10:57:59;10.70;49.00
8422;DHT22;4248;48.196;10.924;2023-11-21T11:00:26;10.70;48.00
8422;DHT22;4248;48.196;10.924;2023-11-21T11:02:53;10.80;48.90
8422;DHT22;4248;48.196;10.924;2023-11-21T11:05:26;10.80;47.90
8422;DHT22;4248;48.196;10.924;2023-11-21T11:08:04;10.70;48.40
8422;DHT22;4248;48.196;10.924;2023-11-21T11:10:30;10.80;47.20
8422;DHT22;4248;48.196;10.924;2023-11-21T11:12:57;10.90;48.20
8422;DHT22;4248;48.196;10.924;2023-11-21T11:15:24;10.90;46.60
8422;DHT22;4248;48.196;10.924;2023-11-21T11:17:50;11.00;47.40
8422;DHT22;4248;48.196;10.924;2023-11-21T11:20:16;11.10;45.70
8422;DHT22;4248;48.196;10.924;2023-11-21T11:25:14;11.10;46.60
8422;DHT22;4248;48.196;10.924;2023-11-21T11:28:07;11.20;46.40
8422;DHT22;4248;48.196;10.924;2023-11-21T11:31:11;11.20;45.00
8422;DHT22;4248;48.196;10.924;2023-11-21T11:34:14;11.30;45.90
8422;DHT22;4248;48.196;10.924;2023-11-21T11:36:59;11.50;45.30
8422;DHT22;4248;48.196;10.924;2023-11-21T11:41:56;11.80;44.40
8422;DHT22;4248;48.196;10.924;2023-11-21T11:47:32;11.80;43.80
8422;DHT22;4248;48.196;10.924;2023-11-21T11:52:51;11.60;43.50
8422;DHT22;4248;48.196;10.924;2023-11-21T11:55:19;11.70;43.20
8422;DHT22;4248;48.196;10.924;2023-11-21T11:57:51;11.50;42.80
8422;DHT22;4248;48.196;10.924;2023-11-21T12:02:54;11.40;43.10
8422;DHT22;4248;48.196;10.924;2023-11-21T12:05:21;11.40;42.90
8422;DHT22;4248;48.196;10.924;2023-11-21T12:07:53;11.50;42.80
8422;DHT22;4248;48.196;10.924;2023-11-21T12:10:24;11.70;40.80
8422;DHT22;4248;48.196;10.924;2023-11-21T12:13:00;11.60;41.00
8422;DHT22;4248;48.196;10.924;2023-11-21T12:15:27;11.30;39.80
8422;DHT22;4248;48.196;10.924;2023-11-21T12:17:56;11.40;41.60
8422;DHT22;4248;48.196;10.924;2023-11-21T12:20:23;11.50;39.80
8422;DHT22;4248;48.196;10.924;2023-11-21T12:22:51;11.60;40.60
8422;DHT22;4248;48.196;10.924;2023-11-21T12:25:18;11.60;40.70
8422;DHT22;4248;48.196;10.924;2023-11-21T12:27:45;11.50;40.50
8422;DHT22;4248;48.196;10.924;2023-11-21T12:30:12;11.50;39.40
8422;DHT22;4248;48.196;10.924;2023-11-21T12:32:41;11.50;40.20
8422;DHT22;4248;48.196;10.924;2023-11-21T12:35:09;11.50;40.10
8422;DHT22;4248;48.196;10.924;2023-11-21T12:37:39;11.50;39.80
8422;DHT22;4248;48.196;10.924;2023-11-21T12:40:06;11.60;38.80
8422;DHT22;4248;48.196;10.924;2023-11-21T12:42:41;11.50;39.90
8422;DHT22;4248;48.196;10.924;2023-11-21T12:47:50;11.40;39.80
8422;DHT22;4248;48.196;10.924;2023-11-21T12:50:26;11.20;39.10
8422;DHT22;4248;48.196;10.924;2023-11-21T12:52:57;11.20;39.80
8422;DHT22;4248;48.196;10.924;2023-11-21T12:55:24;11.10;39.30
8422;DHT22;4248;48.196;10.924;2023-11-21T12:57:55;11.00;41.00
8422;DHT22;4248;48.196;10.924;2023-11-21T13:00:28;10.90;40.10
8422;DHT22;4248;48.196;10.924;2023-11-21T13:02:58;10.70;41.70
8422;DHT22;4248;48.196;10.924;2023-11-21T13:05:45;10.50;42.50
8422;DHT22;4248;48.196;10.924;2023-11-21T13:08:12;10.40;43.30
8422;DHT22;4248;48.196;10.924;2023-11-21T13:10:44;10.20;42.60
8422;DHT22;4248;48.196;10.924;2023-11-21T13:13:13;10.20;44.10
8422;DHT22;4248;48.196;10.924;2023-11-21T13:15:56;10.10;44.10
8422;DHT22;4248;48.196;10.924;2023-11-21T13:18:22;10.10;43.40
8422;DHT22;4248;48.196;10.924;2023-11-21T13:20:48;10.30;43.00
8422;DHT22;4248;48.196;10.924;2023-11-21T13:23:15;10.30;44.00
8422;DHT22;4248;48.196;10.924;2023-11-21T13:25:44;10.50;43.60
8422;DHT22;4248;48.196;10.924;2023-11-21T13:28:11;10.60;43.00
8422;DHT22;4248;48.196;10.924;2023-11-21T13:30:38;10.80;41.30
8422;DHT22;4248;48.196;10.924;2023-11-21T13:33:06;11.00;42.00
8422;DHT22;4248;48.196;10.924;2023-11-21T13:35:38;11.20;41.60
8422;DHT22;4248;48.196;10.924;2023-11-21T13:40:33;11.40;39.70
8422;DHT22;4248;48.196;10.924;2023-11-21T13:43:05;11.50;40.40
8422;DHT22;4248;48.196;10.924;2023-11-21T13:45:38;12.10;39.20
8422;DHT22;4248;48.196;10.924;2023-11-21T13:48:07;12.00;38.30
8422;DHT22;4248;48.196;10.924;2023-11-21T13:50:42;12.00;37.90
8422;DHT22;4248;48.196;10.924;2023-11-21T13:53:23;12.10;38.70
8422;DHT22;4248;48.196;10.924;2023-11-21T13:55:53;12.30;37.40
8422;DHT22;4248;48.196;10.924;2023-11-21T13:58:23;12.20;38.40
8422;DHT22;4248;48.196;10.924;2023-11-21T14:00:58;12.10;37.20
8422;DHT22;4248;48.196;10.924;2023-11-21T14:03:23;12.00;38.80
8422;DHT22;4248;48.196;10.924;2023-11-21T14:05:57;11.80;39.10
8422;DHT22;4248;48.196;10.924;2023-11-21T14:08:23;11.60;39.90
8422;DHT22;4248;48.196;10.924;2023-11-21T14:10:57;11.60;38.80
8422;DHT22;4248;48.196;10.924;2023-11-21T14:13:25;11.50;39.90
8422;DHT22;4248;48.196;10.924;2023-11-21T14:15:51;11.40;38.70
8422;DHT22;4248;48.196;10.924;2023-11-21T14:18:23;11.40;39.80
8422;DHT22;4248;48.196;10.924;2023-11-21T14:20:56;11.40;38.60
8422;DHT22;4248;48.196;10.924;2023-11-21T14:23:21;11.30;39.80
8422;DHT22;4248;48.196;10.924;2023-11-21T14:25:49;11.20;40.10
8422;DHT22;4248;48.196;10.924;2023-11-21T14:28:15;11.10;40.60
8422;DHT22;4248;48.196;10.924;2023-11-21T14:30:41;11.00;39.70
8422;DHT22;4248;48.196;10.924;2023-11-21T14:33:08;11.00;41.10
8422;DHT22;4248;48.196;10.924;2023-11-21T14:35:35;10.90;41.30
8422;DHT22;4248;48.196;10.924;2023-11-21T14:38:01;10.80;41.80
8422;DHT22;4248;48.196;10.924;2023-11-21T14:40:33;10.60;41.70
8422;DHT22;4248;48.196;10.924;2023-11-21T14:43:00;10.50;41.70
8422;DHT22;4248;48.196;10.924;2023-11-21T14:45:26;10.50;42.40
8422;DHT22;4248;48.196;10.924;2023-11-21T14:47:52;10.70;42.80
8422;DHT22;4248;48.196;10.924;2023-11-21T14:50:30;10.50;41.70
8422;DHT22;4248;48.196;10.924;2023-11-21T14:53:08;10.40;42.80
8422;DHT22;4248;48.196;10.924;2023-11-21T14:55:35;10.50;42.90
8422;DHT22;4248;48.196;10.924;2023-11-21T14:58:06;10.40;43.00
8422;DHT22;4248;48.196;10.924;2023-11-21T15:00:36;10.30;42.20
8422;DHT22;4248;48.196;10.924;2023-11-21T15:03:02;10.20;43.30
8422;DHT22;4248;48.196;10.924;2023-11-21T15:05:28;10.20;43.40
8422;DHT22;4248;48.196;10.924;2023-11-21T15:07:54;10.10;43.70
8422;DHT22;4248;48.196;10.924;2023-11-21T15:10:24;10.00;43.10
8422;DHT22;4248;48.196;10.924;2023-11-21T15:13:10;9.90;45.30
8422;DHT22;4248;48.196;10.924;2023-11-21T15:15:36;9.90;45.10
8422;DHT22;4248;48.196;10.924;2023-11-21T15:18:03;9.90;45.50
8422;DHT22;4248;48.196;10.924;2023-11-21T15:20:28;9.90;44.90
8422;DHT22;4248;48.196;10.924;2023-11-21T15:22:54;9.70;45.00
8422;DHT22;4248;48.196;10.924;2023-11-21T15:25:20;9.70;44.80
8422;DHT22;4248;48.196;10.924;2023-11-21T15:30:14;9.10;47.20
8422;DHT22;4248;48.196;10.924;2023-11-21T15:32:41;8.90;48.40
8422;DHT22;4248;48.196;10.924;2023-11-21T15:35:07;8.70;48.60
8422;DHT22;4248;48.196;10.924;2023-11-21T15:40:04;8.70;47.90
8422;DHT22;4248;48.196;10.924;2023-11-21T15:44:57;8.70;47.30
8422;DHT22;4248;48.196;10.924;2023-11-21T15:47:23;8.80;47.00
8422;DHT22;4248;48.196;10.924;2023-11-21T15:49:49;8.80;46.60
8422;DHT22;4248;48.196;10.924;2023-11-21T15:54:42;8.80;46.10
8422;DHT22;4248;48.196;10.924;2023-11-21T15:57:10;8.90;47.10
8422;DHT22;4248;48.196;10.924;2023-11-21T16:04:30;9.00;45.80
8422;DHT22;4248;48.196;10.924;2023-11-21T16:06:55;9.00;46.80
8422;DHT22;4248;48.196;10.924;2023-11-21T16:09:22;9.00;46.50
8422;DHT22;4248;48.196;10.924;2023-11-21T16:11:52;9.00;46.00
8422;DHT22;4248;48.196;10.924;2023-11-21T16:14:22;9.00;47.20
8422;DHT22;4248;48.196;10.924;2023-11-21T16:16:52;9.00;47.00
8422;DHT22;4248;48.196;10.924;2023-11-21T16:19:18;9.00;46.20
8422;DHT22;4248;48.196;10.924;2023-11-21T16:21:47;9.00;47.30
8422;DHT22;4248;48.196;10.924;2023-11-21T16:24:13;9.10;47.50
8422;DHT22;4248;48.196;10.924;2023-11-21T16:26:42;9.10;47.50
8422;DHT22;4248;48.196;10.924;2023-11-21T16:29:08;8.90;48.10
8422;DHT22;4248;48.196;10.924;2023-11-21T16:31:33;8.80;48.50
8422;DHT22;4248;48.196;10.924;2023-11-21T16:33:59;8.80;48.50
8422;DHT22;4248;48.196;10.924;2023-11-21T16:36:25;9.00;48.80